Time;durP1;ratioP1;P1;durP2;ratioP2;P2;SDS_P1;SDS_P2;PMS_P1;PMS_P2;Temp;Humidity;BMP_temperature;BMP_pressure;BME280_temperature;BME280_humidity;BME280_pressure;Samples;Min_cycle;Max_cycle;Signal;HPM_P1;HPM_P2
2022/03/01 00:01:28;;;;;;;16.52;10.80;;;2.30;1.00;;;;;;5016177;28;20531;-79
2022/03/01 00:03:54;;;;;;;16.38;10.77;;;2.30;1.00;;;;;;5017671;28;20041;-78
2022/03/01 00:06:19;;;;;;;17.92;11.38;;;2.10;1.00;;;;;;5016582;28;20055;-79
2022/03/01 00:08:45;;;;;;;16.17;10.40;;;2.10;1.00;;;;;;5001721;28;20124;-79
2022/03/01 00:11:13;;;;;;;14.82;10.38;;;2.10;1.00;;;;;;5017219;28;20136;-79
2022/03/01 00:13:42;;;;;;;16.92;10.85;;;2.20;1.00;;;;;;5003260;28;20566;-78
2022/03/01 00:16:08;;;;;;;16.52;10.30;;;2.10;1.00;;;;;;5004168;28;20819;-78
2022/03/01 00:18:33;;;;;;;17.30;11.05;;;2.10;1.00;;;;;;5000826;28;20041;-78
2022/03/01 00:20:59;;;;;;;17.25;10.90;;;2.20;1.00;;;;;;5001383;28;20037;-78
2022/03/01 00:23:28;;;;;;;14.75;10.15;;;2.10;1.00;;;;;;5002861;28;20193;-78
2022/03/01 00:25:54;;;;;;;16.33;10.48;;;2.10;1.00;;;;;;5015177;28;20086;-78
2022/03/01 00:28:19;;;;;;;15.13;10.05;;;2.10;1.00;;;;;;5019374;28;20407;-78
2022/03/01 00:30:51;;;;;;;15.32;10.25;;;2.10;1.00;;;;;;4998378;28;20030;-78
2022/03/01 00:33:16;;;;;;;15.60;10.60;;;2.10;1.00;;;;;;5024307;28;20196;-78
2022/03/01 00:35:42;;;;;;;17.05;10.43;;;2.10;1.00;;;;;;4994590;28;21693;-79
2022/03/01 00:38:08;;;;;;;16.98;10.45;;;2.10;1.00;;;;;;5003940;28;20049;-79
2022/03/01 00:40:40;;;;;;;16.73;10.20;;;2.00;1.00;;;;;;5016711;28;20037;-79
2022/03/01 00:43:05;;;;;;;19.20;10.90;;;2.00;1.00;;;;;;5004207;28;20378;-78
2022/03/01 00:45:31;;;;;;;15.38;10.32;;;1.90;1.00;;;;;;5001115;28;20066;-78
2022/03/01 00:47:57;;;;;;;16.77;11.13;;;1.90;1.00;;;;;;5001769;28;20041;-78
2022/03/01 00:50:31;;;;;;;14.63;10.23;;;2.00;1.00;;;;;;5015397;28;20091;-78
2022/03/01 00:52:57;;;;;;;14.80;10.77;;;1.90;1.00;;;;;;5001759;28;20055;-78
2022/03/01 00:55:23;;;;;;;14.85;9.60;;;1.90;1.00;;;;;;5000193;28;20461;-78
2022/03/01 00:57:48;;;;;;;14.75;10.05;;;1.90;1.00;;;;;;5021934;28;20049;-79
2022/03/01 01:00:17;;;;;;;16.30;10.60;;;1.90;1.00;;;;;;5000120;28;20317;-79
2022/03/01 01:02:43;;;;;;;15.18;10.07;;;1.80;1.00;;;;;;5015299;28;20128;-78
2022/03/01 01:05:08;;;;;;;15.77;10.05;;;2.00;1.00;;;;;;5014279;28;20473;-78
2022/03/01 01:07:37;;;;;;;13.80;10.10;;;1.90;1.00;;;;;;4997744;28;20072;-79
2022/03/01 01:10:17;;;;;;;16.67;10.00;;;1.90;1.00;;;;;;5002666;28;20501;-79
2022/03/01 01:12:43;;;;;;;17.27;10.63;;;1.90;1.00;;;;;;5015249;28;20077;-79
2022/03/01 01:15:13;;;;;;;16.48;10.00;;;1.90;1.00;;;;;;5011871;28;20060;-79
2022/03/01 01:17:41;;;;;;;16.63;10.68;;;1.80;1.00;;;;;;5008755;28;20489;-78
2022/03/01 01:20:13;;;;;;;14.77;10.45;;;1.80;1.00;;;;;;5010242;28;20040;-78
2022/03/01 01:22:42;;;;;;;14.57;10.20;;;1.80;1.00;;;;;;5015343;28;22259;-78
2022/03/01 01:25:16;;;;;;;14.52;10.27;;;1.80;1.00;;;;;;5015874;28;20112;-78
2022/03/01 01:27:44;;;;;;;17.13;9.95;;;1.80;1.00;;;;;;5014119;28;20496;-78
2022/03/01 01:30:12;;;;;;;14.75;10.13;;;1.70;1.00;;;;;;5015837;28;20044;-78
2022/03/01 01:32:39;;;;;;;14.50;10.05;;;1.70;1.00;;;;;;4998628;28;20547;-78
2022/03/01 01:35:07;;;;;;;13.73;9.57;;;1.70;1.00;;;;;;5013106;28;20400;-78
2022/03/01 01:37:33;;;;;;;14.57;9.98;;;1.70;1.00;;;;;;4998869;28;20501;-78
2022/03/01 01:40:01;;;;;;;16.30;10.07;;;1.70;1.00;;;;;;5014322;28;20139;-78
2022/03/01 01:42:27;;;;;;;18.65;9.52;;;1.60;1.00;;;;;;5014464;28;21146;-78
2022/03/01 01:44:52;;;;;;;14.60;10.27;;;1.70;1.00;;;;;;5021835;28;20270;-78
2022/03/01 01:47:18;;;;;;;14.57;10.18;;;1.70;1.00;;;;;;5016194;28;20408;-78
2022/03/01 01:49:44;;;;;;;15.68;9.73;;;1.80;1.00;;;;;;5014588;28;20526;-78
2022/03/01 01:52:09;;;;;;;15.10;9.48;;;1.70;1.00;;;;;;5017439;28;20029;-78
2022/03/01 01:54:35;;;;;;;18.10;10.30;;;1.80;1.00;;;;;;5018846;28;20041;-78
2022/03/01 01:57:01;;;;;;;16.13;9.95;;;1.60;1.00;;;;;;5016299;28;20039;-78
2022/03/01 01:59:32;;;;;;;14.43;10.30;;;1.60;1.00;;;;;;5002364;28;20040;-78
2022/03/01 02:01:58;;;;;;;14.43;9.90;;;1.60;1.00;;;;;;5015355;28;20032;-78
2022/03/01 02:04:23;;;;;;;14.48;10.38;;;1.60;1.00;;;;;;4999534;28;20047;-78
2022/03/01 02:06:51;;;;;;;14.02;9.30;;;1.60;1.00;;;;;;5014731;28;20412;-78
2022/03/01 02:09:16;;;;;;;19.13;10.40;;;1.60;1.00;;;;;;5001443;28;20082;-78
2022/03/01 02:11:42;;;;;;;16.17;10.23;;;1.60;1.00;;;;;;5014928;28;20548;-78
2022/03/01 02:14:11;;;;;;;16.70;9.80;;;1.60;1.00;;;;;;5003725;28;20581;-78
2022/03/01 02:16:37;;;;;;;16.75;10.45;;;1.60;1.00;;;;;;5001361;28;20524;-78
2022/03/01 02:19:04;;;;;;;16.77;10.68;;;1.60;1.00;;;;;;5002341;28;20044;-78
2022/03/01 02:21:31;;;;;;;13.65;9.18;;;1.60;1.00;;;;;;5014729;28;20044;-78
2022/03/01 02:23:57;;;;;;;14.80;10.05;;;1.70;1.00;;;;;;5001242;28;20105;-78
2022/03/01 02:26:22;;;;;;;12.95;9.57;;;1.60;1.00;;;;;;4998895;28;20038;-78
2022/03/01 02:28:48;;;;;;;17.40;10.75;;;1.60;1.00;;;;;;5000050;28;20100;-79
2022/03/01 02:31:14;;;;;;;17.10;10.40;;;1.60;1.00;;;;;;5016905;28;20039;-78
2022/03/01 02:33:40;;;;;;;16.25;10.20;;;1.60;1.00;;;;;;5015394;28;20227;-78
2022/03/01 02:36:06;;;;;;;16.02;10.10;;;1.60;1.00;;;;;;4996250;28;20520;-78
2022/03/01 02:38:32;;;;;;;16.35;10.70;;;1.60;1.00;;;;;;5018378;28;20101;-78
2022/03/01 02:40:57;;;;;;;14.93;10.52;;;1.60;1.00;;;;;;5015997;28;20396;-78
2022/03/01 02:43:23;;;;;;;15.27;10.65;;;1.50;1.00;;;;;;5017442;28;20032;-78
2022/03/01 02:45:49;;;;;;;14.98;10.90;;;1.50;1.00;;;;;;5000957;28;20045;-79
2022/03/01 02:48:15;;;;;;;16.15;10.57;;;1.50;1.00;;;;;;5002542;28;20052;-78
2022/03/01 02:50:40;;;;;;;16.38;10.98;;;1.50;1.00;;;;;;4996548;28;20076;-78
2022/03/01 02:53:07;;;;;;;17.85;10.50;;;1.50;1.00;;;;;;5013510;28;20169;-78
2022/03/01 02:55:32;;;;;;;16.20;11.25;;;1.40;1.00;;;;;;5023274;28;20094;-78
2022/03/01 02:57:58;;;;;;;17.05;10.63;;;1.40;1.00;;;;;;5006328;28;20399;-78
2022/03/01 03:00:24;;;;;;;16.48;10.93;;;1.40;1.00;;;;;;5009094;28;20217;-78
2022/03/01 03:02:49;;;;;;;16.17;10.10;;;1.30;1.00;;;;;;5008844;28;20025;-78
2022/03/01 03:05:15;;;;;;;20.80;10.90;;;1.30;1.00;;;;;;5020185;28;20106;-78
2022/03/01 03:07:41;;;;;;;16.65;11.30;;;1.20;7.80;;;;;;5002954;28;20060;-78
2022/03/01 03:10:09;;;;;;;15.63;10.68;;;1.20;13.70;;;;;;5020668;28;20048;-78
2022/03/01 03:12:35;;;;;;;16.00;11.25;;;1.20;18.60;;;;;;5001568;28;20153;-78
2022/03/01 03:15:02;;;;;;;17.35;10.93;;;1.20;16.90;;;;;;5020426;28;20475;-78
2022/03/01 03:17:27;;;;;;;16.08;10.50;;;1.20;27.00;;;;;;5019428;28;20442;-78
2022/03/01 03:19:53;;;;;;;16.83;10.98;;;1.20;33.60;;;;;;5019780;28;20095;-78
2022/03/01 03:22:22;;;;;;;17.80;11.20;;;1.20;27.50;;;;;;5003584;28;20519;-78
2022/03/01 03:24:50;;;;;;;17.10;11.30;;;1.20;31.20;;;;;;5001698;28;20500;-78
2022/03/01 03:27:16;;;;;;;16.27;11.25;;;1.20;31.60;;;;;;5019151;28;20175;-78
2022/03/01 03:29:41;;;;;;;17.13;11.32;;;1.20;48.80;;;;;;5016290;28;20572;-78
2022/03/01 03:32:08;;;;;;;19.50;10.77;;;1.20;75.30;;;;;;5001281;28;20039;-78
2022/03/01 03:34:34;;;;;;;17.02;11.48;;;1.20;71.50;;;;;;5003392;28;20542;-78
2022/03/01 03:36:59;;;;;;;17.65;11.55;;;1.20;71.40;;;;;;5000145;28;20045;-78
2022/03/01 03:39:25;;;;;;;18.42;11.80;;;1.20;81.00;;;;;;5017163;28;20397;-78
2022/03/01 03:41:53;;;;;;;16.63;11.55;;;1.20;92.90;;;;;;5003484;28;21758;-78
2022/03/01 03:44:19;;;;;;;17.92;11.70;;;1.30;91.00;;;;;;5019408;28;20056;-78
2022/03/01 03:46:44;;;;;;;21.98;12.15;;;1.30;93.90;;;;;;5017313;28;20041;-78
2022/03/01 03:49:10;;;;;;;18.35;11.65;;;1.30;90.00;;;;;;5017428;28;20040;-78
2022/03/01 03:51:36;;;;;;;17.35;11.73;;;1.30;87.70;;;;;;5015692;28;20137;-78
2022/03/01 03:54:01;;;;;;;15.93;11.30;;;1.40;77.00;;;;;;5020608;28;20029;-78
2022/03/01 03:56:27;;;;;;;19.27;11.90;;;1.40;75.20;;;;;;5017506;28;20496;-78
2022/03/01 03:58:57;;;;;;;18.95;11.20;;;1.40;75.20;;;;;;5024661;28;20065;-78
2022/03/01 04:01:23;;;;;;;17.88;11.77;;;1.50;73.00;;;;;;5022096;28;20037;-78
2022/03/01 04:03:50;;;;;;;18.10;11.48;;;1.50;61.40;;;;;;5019036;28;20539;-78
2022/03/01 04:06:16;;;;;;;18.02;11.77;;;1.50;54.80;;;;;;5000753;28;20308;-78
2022/03/01 04:08:41;;;;;;;17.90;11.32;;;1.50;52.20;;;;;;5016782;28;20532;-78
2022/03/01 04:11:07;;;;;;;18.10;11.68;;;1.50;43.50;;;;;;5020236;28;20115;-78
2022/03/01 04:13:36;;;;;;;20.67;12.07;;;1.60;46.00;;;;;;5012641;28;20307;-78
2022/03/01 04:16:02;;;;;;;19.30;12.45;;;1.60;30.90;;;;;;5009408;28;20570;-78
2022/03/01 04:18:29;;;;;;;18.67;12.07;;;1.60;27.60;;;;;;5016524;28;20076;-78
2022/03/01 04:20:54;;;;;;;17.77;12.07;;;1.60;20.50;;;;;;4998005;28;20040;-78
2022/03/01 04:23:21;;;;;;;21.33;12.02;;;1.60;18.90;;;;;;5002626;28;20435;-78
2022/03/01 04:25:46;;;;;;;17.55;12.48;;;1.70;9.20;;;;;;5018514;28;20239;-78
2022/03/01 04:28:12;;;;;;;16.10;11.07;;;1.70;1.00;;;;;;5017717;28;20446;-78
2022/03/01 04:30:41;;;;;;;18.15;11.95;;;1.80;1.00;;;;;;5015199;28;20033;-78
2022/03/01 04:33:08;;;;;;;15.93;11.18;;;1.80;1.00;;;;;;5015948;28;20345;-78
2022/03/01 04:35:37;;;;;;;19.08;11.85;;;1.70;4.00;;;;;;5013135;28;20053;-78
2022/03/01 04:38:03;;;;;;;18.02;12.15;;;1.80;1.00;;;;;;5025418;28;20048;-78
2022/03/01 04:40:31;;;;;;;16.80;11.25;;;1.80;1.00;;;;;;5018720;28;20048;-78
2022/03/01 04:42:58;;;;;;;16.58;11.55;;;1.80;1.00;;;;;;5017774;28;20040;-78
2022/03/01 04:45:23;;;;;;;19.95;13.32;;;1.80;1.00;;;;;;5000867;28;20038;-78
2022/03/01 04:47:49;;;;;;;15.93;10.82;;;1.80;1.00;;;;;;5004023;28;20549;-78
2022/03/01 04:50:18;;;;;;;16.35;11.57;;;1.80;1.00;;;;;;5020716;28;20245;-78
2022/03/01 04:52:44;;;;;;;19.25;12.02;;;1.80;1.00;;;;;;5001957;28;20456;-78
2022/03/01 04:55:10;;;;;;;17.80;11.98;;;1.90;1.00;;;;;;5006195;28;20041;-78
2022/03/01 04:57:37;;;;;;;17.75;11.75;;;1.90;1.00;;;;;;5022104;28;20052;-78
2022/03/01 05:00:10;;;;;;;18.15;11.68;;;2.00;1.00;;;;;;5004293;28;20037;-78
2022/03/01 05:02:37;;;;;;;21.65;12.10;;;2.00;1.00;;;;;;5016935;28;20108;-78
2022/03/01 05:05:03;;;;;;;19.50;11.95;;;2.10;1.00;;;;;;5003841;28;20186;-78
2022/03/01 05:07:29;;;;;;;17.13;11.77;;;2.10;1.00;;;;;;5012776;28;20065;-78
2022/03/01 05:09:54;;;;;;;17.92;11.63;;;2.10;1.00;;;;;;5017620;28;20060;-78
2022/03/01 05:12:23;;;;;;;20.30;12.20;;;2.10;1.00;;;;;;4995762;28;20029;-79
2022/03/01 05:14:52;;;;;;;20.33;12.63;;;2.10;1.00;;;;;;5002480;28;20037;-78
2022/03/01 05:17:17;;;;;;;17.55;12.13;;;2.10;1.00;;;;;;5001161;28;20089;-78
2022/03/01 05:19:46;;;;;;;20.00;12.55;;;2.10;1.00;;;;;;5000983;28;20045;-78
2022/03/01 05:22:14;;;;;;;17.23;12.30;;;2.00;1.00;;;;;;5013594;28;20036;-78
2022/03/01 05:24:43;;;;;;;16.98;11.25;;;2.10;1.00;;;;;;5016944;28;20158;-78
2022/03/01 05:27:09;;;;;;;18.17;11.88;;;2.10;1.00;;;;;;5016000;28;20418;-78
2022/03/01 05:29:37;;;;;;;19.05;11.88;;;2.20;1.00;;;;;;5004011;28;20479;-78
2022/03/01 05:32:04;;;;;;;17.27;11.38;;;2.20;1.00;;;;;;5003607;28;20083;-78
2022/03/01 05:34:29;;;;;;;16.90;11.52;;;2.20;1.00;;;;;;4996685;28;20104;-78
2022/03/01 05:36:55;;;;;;;18.40;11.85;;;2.20;1.00;;;;;;4987911;28;20060;-78
2022/03/01 05:39:21;;;;;;;17.55;11.30;;;2.20;1.00;;;;;;5002402;28;20772;-78
2022/03/01 05:41:46;;;;;;;18.25;11.98;;;2.30;1.00;;;;;;5004518;28;20500;-78
2022/03/01 05:44:12;;;;;;;21.67;12.48;;;2.20;1.00;;;;;;4989063;28;20059;-78
2022/03/01 05:46:37;;;;;;;17.80;12.38;;;2.20;1.00;;;;;;5004572;28;20041;-78
2022/03/01 05:49:07;;;;;;;19.55;12.38;;;2.20;1.00;;;;;;5017536;28;20045;-78
2022/03/01 05:51:38;;;;;;;17.17;11.85;;;2.20;1.00;;;;;;4984096;28;20068;-78
2022/03/01 05:54:04;;;;;;;19.65;12.95;;;2.20;1.00;;;;;;4988269;28;20043;-78
2022/03/01 05:56:30;;;;;;;20.67;11.57;;;2.10;1.00;;;;;;4990118;28;20034;-79
2022/03/01 05:58:56;;;;;;;20.45;12.80;;;2.10;1.00;;;;;;5004256;28;20033;-78
2022/03/01 06:01:22;;;;;;;17.48;11.82;;;2.10;1.00;;;;;;4995535;28;20175;-78
2022/03/01 06:03:48;;;;;;;20.38;12.52;;;2.10;1.00;;;;;;5005430;28;20116;-78
2022/03/01 06:06:14;;;;;;;18.80;12.70;;;2.10;1.00;;;;;;4986000;28;20084;-78
2022/03/01 06:08:39;;;;;;;19.48;12.50;;;2.10;1.00;;;;;;5000090;28;20052;-78
2022/03/01 06:11:05;;;;;;;16.52;11.95;;;2.10;1.00;;;;;;5003768;28;21383;-78
2022/03/01 06:13:31;;;;;;;21.15;13.20;;;2.10;1.00;;;;;;4983213;28;20029;-78
2022/03/01 06:16:02;;;;;;;18.90;12.20;;;2.10;1.00;;;;;;4994273;28;20180;-78
2022/03/01 06:18:31;;;;;;;18.27;12.85;;;2.20;1.00;;;;;;5004695;28;20448;-78
2022/03/01 06:20:58;;;;;;;18.60;12.45;;;2.20;1.00;;;;;;5021962;28;20067;-78
2022/03/01 06:23:24;;;;;;;17.58;11.90;;;2.20;1.00;;;;;;4989407;28;20047;-78
2022/03/01 06:25:53;;;;;;;20.98;12.73;;;2.30;1.00;;;;;;5001960;28;20515;-79
2022/03/01 06:28:19;;;;;;;19.10;12.10;;;2.20;1.00;;;;;;4989777;28;20543;-78
2022/03/01 06:30:45;;;;;;;19.90;13.20;;;2.20;1.00;;;;;;4990430;28;20124;-78
2022/03/01 06:33:11;;;;;;;17.00;12.13;;;2.20;1.00;;;;;;5023511;28;20041;-79
2022/03/01 06:35:37;;;;;;;18.63;12.93;;;2.30;1.00;;;;;;5005986;28;20052;-79
2022/03/01 06:38:02;;;;;;;20.30;12.38;;;2.30;1.00;;;;;;5015844;28;20056;-78
2022/03/01 06:40:31;;;;;;;22.17;12.68;;;2.30;1.00;;;;;;4995706;28;20045;-78
2022/03/01 06:42:57;;;;;;;19.05;12.50;;;2.40;1.00;;;;;;4997038;28;20427;-78
2022/03/01 06:45:23;;;;;;;21.35;13.07;;;2.40;1.00;;;;;;5013602;28;20048;-78
2022/03/01 06:47:51;;;;;;;18.35;12.43;;;2.40;1.00;;;;;;5008038;28;20523;-78
2022/03/01 06:50:17;;;;;;;18.02;12.25;;;2.40;1.00;;;;;;5011639;28;20425;-78
2022/03/01 06:52:42;;;;;;;19.23;12.13;;;2.40;1.00;;;;;;4996629;28;20043;-78
2022/03/01 06:55:09;;;;;;;19.52;12.40;;;2.50;1.00;;;;;;5012515;28;20123;-78
2022/03/01 06:57:38;;;;;;;18.95;12.60;;;2.50;1.00;;;;;;4997173;28;20116;-78
2022/03/01 07:00:04;;;;;;;17.50;11.68;;;2.60;1.00;;;;;;5006140;28;20515;-78
2022/03/01 07:02:38;;;;;;;19.48;11.98;;;2.60;1.00;;;;;;5008838;28;20397;-78
2022/03/01 07:05:09;;;;;;;18.40;12.52;;;2.70;1.00;;;;;;4994573;28;20533;-78
2022/03/01 07:07:36;;;;;;;16.33;11.35;;;2.70;1.00;;;;;;4994597;28;20057;-78
2022/03/01 07:10:04;;;;;;;18.80;12.10;;;2.90;1.00;;;;;;5015812;28;20119;-78
2022/03/01 07:12:30;;;;;;;19.15;13.02;;;2.90;1.00;;;;;;5012622;28;20052;-78
2022/03/01 07:14:55;;;;;;;19.13;12.48;;;3.00;99.90;;;;;;4999419;28;20273;-78
2022/03/01 07:17:21;;;;;;;19.67;11.93;;;3.00;99.90;;;;;;5014111;28;20037;-78
2022/03/01 07:19:49;;;;;;;18.55;12.45;;;3.10;1.00;;;;;;5011178;28;20045;-79
2022/03/01 07:22:15;;;;;;;19.63;12.82;;;3.20;1.00;;;;;;5012072;28;20045;-78
2022/03/01 07:24:40;;;;;;;20.60;12.05;;;3.20;1.00;;;;;;5012056;28;20091;-78
2022/03/01 07:27:06;;;;;;;20.77;12.60;;;3.20;1.00;;;;;;4997658;28;20037;-78
2022/03/01 07:29:33;;;;;;;18.77;12.65;;;3.30;1.00;;;;;;4999155;28;20067;-78
2022/03/01 07:32:02;;;;;;;19.58;13.32;;;3.40;1.00;;;;;;5009673;28;20036;-78
2022/03/01 07:34:31;;;;;;;17.70;12.52;;;3.40;1.00;;;;;;4996733;28;20033;-78
2022/03/01 07:36:57;;;;;;;21.90;12.23;;;3.40;1.00;;;;;;5012529;28;20229;-79
2022/03/01 07:39:23;;;;;;;15.95;12.20;;;3.50;1.00;;;;;;5015549;28;20037;-78
2022/03/01 07:41:51;;;;;;;19.98;13.10;;;3.60;1.00;;;;;;4994926;28;20033;-78
2022/03/01 07:44:21;;;;;;;19.52;12.63;;;3.60;99.90;;;;;;5000267;28;20747;-78
2022/03/01 07:46:47;;;;;;;19.45;13.30;;;3.70;1.00;;;;;;5015405;28;20504;-78
2022/03/01 07:49:13;;;;;;;19.73;12.18;;;3.70;99.90;;;;;;5016369;28;20204;-79
2022/03/01 07:51:39;;;;;;;20.83;12.45;;;3.70;99.90;;;;;;5012153;28;20101;-79
2022/03/01 07:54:05;;;;;;;19.95;12.30;;;3.80;99.90;;;;;;5016599;28;20068;-79
2022/03/01 07:56:33;;;;;;;20.25;12.20;;;3.90;99.90;;;;;;4998816;28;20120;-79
2022/03/01 07:58:59;;;;;;;19.45;13.23;;;3.90;99.90;;;;;;5017971;28;20499;-79
2022/03/01 08:01:25;;;;;;;17.23;12.38;;;4.00;99.90;;;;;;5016146;28;20476;-78
2022/03/01 08:03:50;;;;;;;20.00;13.60;;;4.00;99.90;;;;;;5015886;28;20033;-79
2022/03/01 08:06:17;;;;;;;17.55;12.23;;;4.10;99.90;;;;;;5014670;28;20400;-79
2022/03/01 08:08:43;;;;;;;18.77;12.30;;;4.10;99.90;;;;;;5014675;28;20153;-79
2022/03/01 08:11:09;;;;;;;17.25;12.27;;;4.20;99.90;;;;;;5000217;28;20476;-78
2022/03/01 08:13:38;;;;;;;19.52;13.88;;;4.20;99.90;;;;;;5013606;28;20535;-79
2022/03/01 08:16:05;;;;;;;18.60;12.98;;;4.20;99.90;;;;;;4996785;28;20543;-78
2022/03/01 08:18:31;;;;;;;22.00;13.48;;;4.30;99.90;;;;;;5000465;28;20138;-78
2022/03/01 08:20:57;;;;;;;18.60;12.65;;;4.40;99.90;;;;;;4998911;28;20127;-79
2022/03/01 08:23:24;;;;;;;21.85;13.85;;;4.40;99.90;;;;;;5001950;28;20105;-79
2022/03/01 08:25:50;;;;;;;17.83;13.13;;;4.40;99.90;;;;;;4999641;28;20041;-79
2022/03/01 08:28:16;;;;;;;20.13;12.73;;;4.50;99.90;;;;;;5014000;28;20480;-79
2022/03/01 08:30:42;;;;;;;17.33;12.82;;;4.50;99.90;;;;;;4994499;28;20089;-79
2022/03/01 08:33:08;;;;;;;20.48;12.95;;;4.60;99.90;;;;;;5016901;28;20032;-79
2022/03/01 08:35:34;;;;;;;18.92;12.95;;;4.70;99.90;;;;;;5011152;28;20639;-79
2022/03/01 08:38:05;;;;;;;19.67;12.80;;;4.80;99.90;;;;;;5013277;28;21706;-79
2022/03/01 08:40:42;;;;;;;19.77;12.90;;;4.80;99.90;;;;;;5015795;28;20120;-79
2022/03/01 08:43:14;;;;;;;19.15;13.50;;;4.90;99.90;;;;;;4995390;28;20485;-79
2022/03/01 08:45:40;;;;;;;19.75;13.38;;;5.10;99.90;;;;;;5015221;28;20036;-79
2022/03/01 08:48:06;;;;;;;18.17;13.57;;;5.20;99.90;;;;;;5014396;28;20049;-79
2022/03/01 08:50:33;;;;;;;19.25;12.52;;;5.10;99.90;;;;;;4999711;28;20210;-79
2022/03/01 08:53:00;;;;;;;18.67;13.23;;;5.20;99.90;;;;;;4996571;28;20460;-79
2022/03/01 08:55:29;;;;;;;22.45;13.25;;;5.40;99.90;;;;;;4997702;28;20238;-79
2022/03/01 08:57:56;;;;;;;19.00;13.25;;;5.50;99.90;;;;;;4995577;28;20028;-79
2022/03/01 09:00:25;;;;;;;20.15;13.32;;;5.50;99.90;;;;;;5009238;28;20083;-79
2022/03/01 09:02:51;;;;;;;18.02;13.23;;;5.70;99.90;;;;;;4996033;28;20524;-79
2022/03/01 09:05:17;;;;;;;20.10;13.65;;;5.70;99.90;;;;;;5029720;28;20134;-79
2022/03/01 09:07:43;;;;;;;18.73;13.63;;;5.80;99.90;;;;;;4996152;28;20037;-79
2022/03/01 09:10:09;;;;;;;18.23;13.55;;;6.00;33.50;;;;;;5012600;28;20055;-79
2022/03/01 09:12:35;;;;;;;20.65;13.88;;;6.10;74.90;;;;;;4999163;28;20540;-79
2022/03/01 09:15:05;;;;;;;18.38;13.70;;;6.30;99.90;;;;;;4998821;28;20048;-79
2022/03/01 09:17:34;;;;;;;19.08;13.43;;;6.70;99.90;;;;;;4998578;28;20025;-79
2022/03/01 09:20:00;;;;;;;22.45;12.80;;;6.60;1.00;;;;;;5010976;28;20562;-79
2022/03/01 09:22:25;;;;;;;19.10;12.95;;;6.70;1.00;;;;;;5013544;28;20199;-79
2022/03/01 09:24:51;;;;;;;19.75;13.23;;;6.90;1.00;;;;;;5013471;28;20629;-79
2022/03/01 09:27:17;;;;;;;18.40;13.85;;;6.90;1.00;;;;;;4995473;28;20277;-79
2022/03/01 09:29:44;;;;;;;23.35;13.30;;;7.00;1.00;;;;;;4994861;28;20420;-79
2022/03/01 09:32:09;;;;;;;17.45;12.73;;;7.10;99.90;;;;;;4997171;28;20729;-79
2022/03/01 09:34:35;;;;;;;18.13;14.02;;;7.20;1.00;;;;;;5011934;28;20033;-79
2022/03/01 09:37:01;;;;;;;18.80;13.00;;;7.10;99.90;;;;;;5010391;28;20053;-79
2022/03/01 09:39:26;;;;;;;18.08;12.93;;;7.10;99.90;;;;;;5011384;28;20413;-79
2022/03/01 09:41:53;;;;;;;19.17;13.30;;;7.30;99.90;;;;;;4995543;28;20044;-79
2022/03/01 09:44:20;;;;;;;19.20;13.30;;;7.20;99.90;;;;;;4999318;28;20080;-80
2022/03/01 09:46:45;;;;;;;17.55;12.68;;;7.20;99.90;;;;;;4995314;28;20286;-79
2022/03/01 09:49:11;;;;;;;18.60;13.30;;;7.20;99.90;;;;;;4996215;28;20361;-79
2022/03/01 09:51:39;;;;;;;20.02;13.23;;;7.20;99.90;;;;;;4998394;28;20060;-79
2022/03/01 09:54:22;;;;;;;18.27;13.45;;;7.10;99.90;;;;;;5010986;28;20061;-79
2022/03/01 09:56:48;;;;;;;19.13;13.60;;;7.20;99.90;;;;;;4995415;28;20106;-79
2022/03/01 09:59:13;;;;;;;20.20;12.63;;;7.10;99.90;;;;;;5001766;28;20037;-79
2022/03/01 10:01:50;;;;;;;19.00;12.95;;;7.20;99.90;;;;;;5010780;28;20488;-79
2022/03/01 10:04:16;;;;;;;19.95;13.70;;;7.10;99.90;;;;;;5012190;28;20048;-79
2022/03/01 10:06:46;;;;;;;19.83;14.15;;;7.30;99.90;;;;;;4989605;28;20041;-79
2022/03/01 10:09:15;;;;;;;19.50;14.07;;;7.30;99.90;;;;;;5003098;28;20130;-79
2022/03/01 10:11:41;;;;;;;18.45;13.05;;;7.40;99.90;;;;;;4993242;28;20063;-79
2022/03/01 10:14:10;;;;;;;18.85;13.13;;;7.60;99.90;;;;;;4996698;28;20620;-79
2022/03/01 10:16:42;;;;;;;19.70;13.60;;;7.60;99.90;;;;;;5012400;28;20044;-79
2022/03/01 10:19:19;;;;;;;18.95;13.30;;;7.70;99.90;;;;;;4996768;28;20075;-79
2022/03/01 10:21:57;;;;;;;19.67;13.55;;;7.80;99.90;;;;;;5009952;28;20615;-79
2022/03/01 10:24:23;;;;;;;19.70;13.65;;;7.90;99.90;;;;;;5014298;28;20029;-80
2022/03/01 10:26:49;;;;;;;20.63;13.45;;;8.00;99.90;;;;;;4998192;28;20045;-79
2022/03/01 10:29:16;;;;;;;22.05;14.13;;;8.00;99.90;;;;;;5012929;28;20033;-79
2022/03/01 10:31:46;;;;;;;19.48;13.77;;;8.00;99.90;;;;;;5010200;28;20040;-80
2022/03/01 10:34:13;;;;;;;20.95;13.85;;;8.30;99.90;;;;;;4997268;28;20176;-79
2022/03/01 10:36:48;;;;;;;19.33;13.23;;;8.60;99.90;;;;;;4997013;28;20095;-80
2022/03/01 10:39:19;;;;;;;18.55;13.02;;;8.80;90.30;;;;;;5028472;28;20131;-80
2022/03/01 10:41:48;;;;;;;17.17;13.43;;;9.00;1.00;;;;;;5016295;28;20515;-80
2022/03/01 10:44:27;;;;;;;17.35;13.32;;;9.10;99.90;;;;;;5012641;28;20354;-80
2022/03/01 10:46:58;;;;;;;16.88;12.82;;;9.20;99.90;;;;;;5015852;28;20102;-80
2022/03/01 10:49:33;;;;;;;20.10;13.63;;;9.40;49.00;;;;;;4997728;28;20043;-80
2022/03/01 10:52:06;;;;;;;19.90;13.90;;;9.60;99.90;;;;;;5007155;28;20505;-80
2022/03/01 10:54:38;;;;;;;15.90;12.18;;;9.60;1.00;;;;;;5014374;28;20144;-80
2022/03/01 10:57:21;;;;;;;16.98;13.27;;;9.50;1.00;;;;;;5018892;28;20051;-80
2022/03/01 10:59:48;;;;;;;17.02;13.43;;;9.70;37.90;;;;;;5001238;28;20608;-80
2022/03/01 11:02:16;;;;;;;18.40;13.18;;;9.90;67.50;;;;;;4997019;28;20037;-80
2022/03/01 11:04:42;;;;;;;16.50;13.20;;;9.60;1.00;;;;;;4998933;28;20037;-80
2022/03/01 11:07:13;;;;;;;17.42;13.07;;;9.50;1.00;;;;;;4989913;28;20087;-80
2022/03/01 11:09:46;;;;;;;17.23;12.80;;;9.30;32.00;;;;;;5012720;28;21526;-80
2022/03/01 11:12:12;;;;;;;17.52;12.80;;;9.40;1.00;;;;;;4992806;28;20037;-80
2022/03/01 11:14:59;;;;;;;20.83;14.27;;;9.30;75.10;;;;;;5007937;28;20033;-80
2022/03/01 11:17:43;;;;;;;18.95;13.18;;;9.20;34.20;;;;;;5010021;28;20073;-80
2022/03/01 11:20:13;;;;;;;19.20;14.13;;;9.00;20.40;;;;;;5016246;28;20498;-80
2022/03/01 11:23:01;;;;;;;17.77;13.18;;;9.00;1.00;;;;;;5003379;28;20041;-80
2022/03/01 11:25:27;;;;;;;18.48;13.13;;;9.20;9.60;;;;;;5002910;28;20400;-79
2022/03/01 11:28:02;;;;;;;18.13;13.40;;;9.40;51.10;;;;;;5008740;28;20390;-80
2022/03/01 11:30:32;;;;;;;18.42;13.68;;;9.50;64.20;;;;;;5004636;28;20113;-80
2022/03/01 11:32:58;;;;;;;18.77;13.45;;;9.50;56.10;;;;;;5016370;28;20116;-80
2022/03/01 11:35:27;;;;;;;20.83;13.45;;;9.50;35.10;;;;;;5009780;28;20054;-80
2022/03/01 11:38:12;;;;;;;19.52;13.88;;;9.40;19.30;;;;;;5027065;28;20106;-80
2022/03/01 11:40:44;;;;;;;21.25;13.43;;;9.40;11.50;;;;;;5033461;28;20045;-80
2022/03/01 11:43:20;;;;;;;19.67;13.25;;;9.40;99.90;;;;;;5003622;28;20505;-80
2022/03/01 11:45:51;;;;;;;18.60;14.20;;;9.30;99.90;;;;;;5011844;28;20119;-80
2022/03/01 11:48:22;;;;;;;18.10;13.90;;;9.20;99.90;;;;;;5013818;28;20044;-80
2022/03/01 11:50:55;;;;;;;19.70;13.60;;;9.00;63.60;;;;;;5016207;28;20430;-80
2022/03/01 11:53:27;;;;;;;18.45;13.60;;;9.00;99.90;;;;;;5016252;28;20029;-80
2022/03/01 11:55:58;;;;;;;18.58;13.75;;;9.10;99.90;;;;;;5001205;28;20190;-80
2022/03/01 11:58:25;;;;;;;23.27;14.80;;;9.00;99.90;;;;;;5002866;28;20068;-80
2022/03/01 12:00:52;;;;;;;19.33;14.00;;;9.10;99.90;;;;;;5002650;28;20036;-80
2022/03/01 12:03:29;;;;;;;19.15;14.57;;;9.00;99.90;;;;;;5033496;28;20068;-80
2022/03/01 12:05:55;;;;;;;19.88;13.80;;;9.00;99.90;;;;;;5012175;28;20077;-80
2022/03/01 12:08:21;;;;;;;19.58;14.65;;;8.90;99.90;;;;;;4997765;28;20128;-80
2022/03/01 12:11:13;;;;;;;18.70;14.18;;;8.80;99.90;;;;;;5001378;28;20108;-80
2022/03/01 12:13:45;;;;;;;18.33;13.82;;;8.80;99.90;;;;;;5016387;28;20076;-80
2022/03/01 12:16:13;;;;;;;19.10;14.05;;;8.80;99.90;;;;;;5001702;28;20045;-80
2022/03/01 12:18:41;;;;;;;23.45;14.70;;;8.80;99.90;;;;;;5002241;28;20566;-80
2022/03/01 12:21:20;;;;;;;18.58;14.23;;;8.80;99.90;;;;;;4996504;28;20114;-80
2022/03/01 12:23:46;;;;;;;19.10;14.35;;;8.80;99.90;;;;;;5015922;28;20045;-80
2022/03/01 12:26:14;;;;;;;20.48;14.05;;;8.80;99.90;;;;;;5013507;28;20381;-80
2022/03/01 12:28:45;;;;;;;17.50;13.98;;;8.90;99.90;;;;;;5000231;28;20033;-80
2022/03/01 12:31:23;;;;;;;21.63;14.70;;;8.90;99.90;;;;;;4999242;28;20106;-80
2022/03/01 12:33:54;;;;;;;17.67;14.10;;;8.90;99.90;;;;;;4999681;28;20033;-80
2022/03/01 12:36:32;;;;;;;19.42;14.77;;;9.00;99.90;;;;;;5017762;28;20045;-80
2022/03/01 12:39:04;;;;;;;21.13;15.18;;;9.10;99.90;;;;;;5014806;28;20048;-80
2022/03/01 12:41:30;;;;;;;18.60;13.77;;;9.30;99.90;;;;;;4991008;28;20049;-80
2022/03/01 12:43:59;;;;;;;20.48;14.57;;;9.40;99.90;;;;;;5014715;28;20051;-80
2022/03/01 12:46:34;;;;;;;22.98;14.85;;;9.60;99.90;;;;;;4998819;28;20381;-80